Time;durP1;ratioP1;P1;durP2;ratioP2;P2;SDS_P1;SDS_P2;PMS_P1;PMS_P2;Temp;Humidity;BMP_temperature;BMP_pressure;BME280_temperature;BME280_humidity;BME280_pressure;Samples;Min_cycle;Max_cycle;Signal;HPM_P1;HPM_P2
2022/02/21 00:01:54;;;;;;;7.97;2.70;;;;;;;8.48;100.00;99374.88;5032611;28;20417;-74
2022/02/21 00:04:38;;;;;;;5.18;2.50;;;;;;;8.43;100.00;99385.13;5032397;28;20107;-74
2022/02/21 00:07:21;;;;;;;11.45;2.95;;;;;;;8.44;100.00;99385.97;5033729;28;20497;-72
2022/02/21 00:10:07;;;;;;;7.35;2.92;;;;;;;8.45;100.00;99361.06;5033648;28;20136;-74
2022/02/21 00:12:52;;;;;;;8.48;3.00;;;;;;;8.42;100.00;99356.03;5032743;28;20150;-74
2022/02/21 00:15:36;;;;;;;8.98;2.35;;;;;;;8.48;100.00;99377.53;5033789;28;20052;-74
2022/02/21 00:18:20;;;;;;;;;;;;;;;8.40;100.00;99355.38;5032114;28;20409;-73
2022/02/21 00:21:04;;;;;;;7.93;2.80;;;;;;;8.38;100.00;99378.59;5033748;28;19939;-74
2022/02/21 00:23:48;;;;;;;10.70;2.90;;;;;;;8.40;100.00;99323.50;5033387;28;20185;-74
2022/02/21 00:26:32;;;;;;;13.70;2.85;;;;;;;8.36;100.00;99338.09;5032367;28;20040;-74
2022/02/21 00:29:16;;;;;;;5.25;2.30;;;;;;;8.38;100.00;99346.72;5032130;28;20142;-74
2022/02/21 00:32:00;;;;;;;7.28;2.45;;;;;;;8.38;100.00;99325.47;5032464;28;20053;-74
2022/02/21 00:34:44;;;;;;;5.82;2.45;;;;;;;8.41;100.00;99325.16;5032931;28;20156;-74
2022/02/21 00:37:27;;;;;;;7.68;2.47;;;;;;;8.35;100.00;99309.88;5046061;28;20402;-74
2022/02/21 00:40:11;;;;;;;8.00;3.00;;;;;;;8.31;100.00;99297.88;5046545;28;20052;-74
2022/02/21 00:42:55;;;;;;;9.40;2.40;;;;;;;8.35;100.00;99321.31;5033178;28;20095;-74
2022/02/21 00:45:39;;;;;;;;;;;;;;;8.34;100.00;99300.22;5032438;28;20056;-73
2022/02/21 00:48:23;;;;;;;8.00;2.90;;;;;;;8.33;100.00;99299.38;5018106;28;19963;-74
2022/02/21 00:51:07;;;;;;;9.95;3.35;;;;;;;8.32;100.00;99297.72;5031974;28;20052;-74
2022/02/21 00:53:51;;;;;;;6.78;3.10;;;;;;;8.34;100.00;99286.97;5031639;28;20110;-74
2022/02/21 00:56:35;;;;;;;8.68;3.00;;;;;;;8.35;100.00;99249.59;5031618;28;20189;-73
2022/02/21 00:59:19;;;;;;;10.00;3.28;;;;;;;8.31;100.00;99256.22;5031877;28;20452;-74
2022/02/21 01:02:03;;;;;;;7.18;2.92;;;;;;;8.31;100.00;99239.44;5031880;28;20386;-72
2022/02/21 01:04:47;;;;;;;7.55;3.28;;;;;;;8.31;100.00;99227.03;5032832;28;20048;-74
2022/02/21 01:07:31;;;;;;;11.00;2.88;;;;;;;8.37;100.00;99222.91;5017892;28;20053;-74
2022/02/21 01:10:15;;;;;;;;;;;;;;;8.34;100.00;99218.72;5033242;28;20095;-74
2022/02/21 01:12:58;;;;;;;7.50;2.92;;;;;;;8.33;100.00;99217.06;5017570;28;19940;-73
2022/02/21 01:15:42;;;;;;;9.48;2.85;;;;;;;8.36;100.00;99215.94;5033061;28;20088;-73
2022/02/21 01:18:26;;;;;;;10.32;3.00;;;;;;;8.37;100.00;99220.25;5017607;28;20041;-74
2022/02/21 01:21:10;;;;;;;8.40;2.35;;;;;;;8.41;100.00;99213.63;5032673;28;20052;-74
2022/02/21 01:23:54;;;;;;;10.60;3.13;;;;;;;8.41;100.00;99200.34;5031590;28;20048;-74
2022/02/21 01:26:38;;;;;;;11.43;3.75;;;;;;;8.39;100.00;99195.22;5032728;28;20052;-73
2022/02/21 01:29:22;;;;;;;9.73;2.65;;;;;;;8.40;100.00;99182.75;5047476;28;20056;-74
2022/02/21 01:32:07;;;;;;;10.82;3.42;;;;;;;8.40;100.00;99175.63;5049963;28;20056;-74
2022/02/21 01:34:51;;;;;;;11.30;3.15;;;;;;;8.38;100.00;99193.56;5036502;28;20550;-73
2022/02/21 01:37:35;;;;;;;9.48;2.65;;;;;;;8.44;100.00;99161.03;5035436;28;20620;-74
2022/02/21 01:40:20;;;;;;;7.15;1.50;;;;;;;8.54;100.00;99134.38;5035198;28;20124;-74
2022/02/21 01:43:04;;;;;;;5.03;1.88;;;;;;;8.67;100.00;99134.78;5035580;28;20509;-74
2022/02/21 01:45:48;;;;;;;12.40;1.83;;;;;;;8.61;100.00;99127.44;5036195;28;20195;-74
2022/02/21 01:48:32;;;;;;;;;;;;;;;8.60;100.00;99131.06;5036027;28;20049;-73
2022/02/21 01:51:16;;;;;;;8.55;2.42;;;;;;;8.54;100.00;99113.13;5035086;28;19963;-74
2022/02/21 01:54:01;;;;;;;6.65;2.33;;;;;;;8.45;100.00;99130.03;5035135;28;20064;-74
2022/02/21 01:56:45;;;;;;;11.77;2.80;;;;;;;8.42;100.00;99109.91;5035887;28;20049;-74
2022/02/21 01:59:31;;;;;;;6.85;2.33;;;;;;;8.45;100.00;99109.59;5035338;28;20095;-73
2022/02/21 02:02:14;;;;;;;11.95;3.08;;;;;;;8.46;100.00;99110.44;5049444;28;20413;-74
2022/02/21 02:04:58;;;;;;;7.00;1.63;;;;;;;8.45;100.00;99084.88;5035800;28;20047;-73
2022/02/21 02:07:43;;;;;;;4.60;1.90;;;;;;;8.48;100.00;99087.19;5036039;28;20103;-74
2022/02/21 02:10:28;;;;;;;7.68;2.03;;;;;;;8.48;100.00;99084.53;5034891;28;20047;-74
2022/02/21 02:13:12;;;;;;;4.47;1.55;;;;;;;8.50;100.00;99067.47;5034541;28;20052;-74
2022/02/21 02:15:56;;;;;;;8.40;1.70;;;;;;;8.57;100.00;99059.69;5020809;28;20072;-74
2022/02/21 02:18:40;;;;;;;7.70;1.60;;;;;;;8.54;100.00;99044.09;5034588;28;20111;-74
2022/02/21 02:21:28;;;;;;;7.60;1.60;;;;;;;8.75;100.00;99016.06;5049096;28;20060;-74
2022/02/21 02:24:12;;;;;;;5.40;1.17;;;;;;;9.42;100.00;99038.91;5034591;28;20118;-74
2022/02/21 02:26:57;;;;;;;4.60;1.08;;;;;;;9.40;100.00;99001.81;5034400;28;20460;-74
2022/02/21 02:29:42;;;;;;;4.25;1.40;;;;;;;8.88;100.00;99005.78;5035577;28;20501;-74
2022/02/21 02:32:26;;;;;;;4.95;1.77;;;;;;;8.75;100.00;98999.31;5034527;28;20052;-75
2022/02/21 02:35:10;;;;;;;4.40;1.30;;;;;;;8.84;100.00;99027.53;5035084;28;20052;-74
2022/02/21 02:37:54;;;;;;;5.35;1.40;;;;;;;8.82;100.00;99080.00;5034336;28;20095;-74
2022/02/21 02:40:38;;;;;;;5.93;1.63;;;;;;;8.85;100.00;99140.84;5019560;28;20052;-74
2022/02/21 02:43:23;;;;;;;6.10;1.92;;;;;;;8.93;100.00;99216.09;5035359;28;20071;-75
2022/02/21 02:46:07;;;;;;;6.00;0.85;;;;;;;7.89;100.00;99225.97;5034034;28;20118;-75
2022/02/21 02:48:51;;;;;;;7.97;0.82;;;;;;;6.41;100.00;99253.81;5033961;28;20048;-76
2022/02/21 02:51:35;;;;;;;2.90;0.77;;;;;;;6.17;100.00;99252.63;5035180;28;20402;-75
2022/02/21 02:54:20;;;;;;;4.68;0.85;;;;;;;6.04;100.00;99270.59;5035165;28;20129;-74
2022/02/21 02:57:04;;;;;;;2.65;0.60;;;;;;;6.10;100.00;99305.25;5048041;28;20044;-75
2022/02/21 02:59:48;;;;;;;2.25;0.55;;;;;;;6.15;100.00;99315.44;5034804;28;20052;-75
2022/02/21 03:02:32;;;;;;;4.25;0.65;;;;;;;5.99;100.00;99329.22;5033780;28;20056;-75
2022/02/21 03:05:16;;;;;;;0.77;0.60;;;;;;;5.99;100.00;99333.66;5033671;28;20052;-74
2022/02/21 03:07:59;;;;;;;6.05;1.33;;;;;;;5.89;100.00;99336.28;5033885;28;20049;-74
2022/02/21 03:10:43;;;;;;;5.57;1.17;;;;;;;5.93;100.00;99329.75;5029345;22;20120;-75
2022/02/21 03:13:27;;;;;;;6.70;1.40;;;;;;;5.65;100.00;99322.56;5014000;28;20049;-74
2022/02/21 03:16:11;;;;;;;6.70;1.38;;;;;;;5.63;100.00;99316.59;5014921;28;20063;-75
2022/02/21 03:18:55;;;;;;;8.05;1.73;;;;;;;5.49;100.00;99332.84;5013895;28;20532;-74
2022/02/21 03:21:39;;;;;;;6.20;1.50;;;;;;;5.27;100.00;99298.69;5014773;28;20098;-74
2022/02/21 03:24:23;;;;;;;8.20;1.63;;;;;;;5.22;100.00;99271.84;5013761;28;20505;-74
2022/02/21 03:27:07;;;;;;;13.55;2.00;;;;;;;4.93;100.00;99257.69;5014721;28;20068;-73
2022/02/21 03:29:50;;;;;;;7.90;1.70;;;;;;;4.92;100.00;99267.56;5013681;28;20049;-74
2022/02/21 03:32:34;;;;;;;7.70;1.60;;;;;;;4.83;100.00;99270.97;5013608;28;20056;-73
2022/02/21 03:35:18;;;;;;;;;;;;;;;4.90;100.00;99278.22;5000078;28;20056;-74
2022/02/21 03:38:03;;;;;;;7.72;2.03;;;;;;;4.89;100.00;99249.34;5013278;28;19924;-74
2022/02/21 03:40:48;;;;;;;12.95;1.88;;;;;;;4.94;100.00;99247.97;5014163;28;20049;-75
2022/02/21 03:43:32;;;;;;;10.23;2.33;;;;;;;4.95;100.00;99218.78;5013436;28;20414;-74
2022/02/21 03:46:16;;;;;;;13.27;2.25;;;;;;;5.04;100.00;99254.13;5014430;28;20100;-74
2022/02/21 03:49:00;;;;;;;9.35;1.50;;;;;;;5.05;100.00;99271.63;5013132;28;20520;-75
2022/02/21 03:51:44;;;;;;;8.57;2.20;;;;;;;5.08;100.00;99293.34;5012998;28;20187;-74
2022/02/21 03:54:28;;;;;;;;;;;;;;;5.13;100.00;99301.69;5013647;28;20044;-74
2022/02/21 03:57:12;;;;;;;15.00;2.93;;;;;;;5.08;100.00;99298.63;5013107;28;19924;-74
2022/02/21 03:59:56;;;;;;;10.73;1.70;;;;;;;5.01;100.00;99317.78;5013169;28;20060;-74
2022/02/21 04:02:41;;;;;;;8.02;1.45;;;;;;;5.05;100.00;99317.38;5014116;28;20069;-74
2022/02/21 04:05:25;;;;;;;5.65;1.70;;;;;;;5.18;100.00;99294.22;5012842;28;20322;-74
2022/02/21 04:08:09;;;;;;;6.82;1.63;;;;;;;5.72;100.00;99314.91;5012913;28;20156;-75
2022/02/21 04:10:53;;;;;;;7.93;1.73;;;;;;;5.48;100.00;99320.59;5012757;28;20103;-74
2022/02/21 04:13:36;;;;;;;7.40;1.30;;;;;;;5.51;100.00;99338.81;5013667;28;20044;-74
2022/02/21 04:16:20;;;;;;;;;;;;;;;5.71;100.00;99337.03;5014004;28;20057;-74
2022/02/21 04:19:04;;;;;;;5.90;1.50;;;;;;;6.27;100.00;99344.22;5013796;28;19923;-74
2022/02/21 04:21:48;;;;;;;;;;;;;;;6.31;100.00;99360.69;5014077;28;20052;-74
2022/02/21 04:24:32;;;;;;;7.60;1.60;;;;;;;6.67;100.00;99359.97;4998834;28;20044;-75
2022/02/21 04:27:16;;;;;;;;;;;;;;;6.73;100.00;99336.41;5014079;28;20053;-74
2022/02/21 04:30:00;;;;;;;12.27;2.50;;;;;;;6.68;100.00;99341.28;4998607;28;19975;-74
2022/02/21 04:32:47;;;;;;;5.00;1.60;;;;;;;6.83;100.00;99321.31;5012830;28;20465;-74
2022/02/21 04:35:31;;;;;;;8.20;1.60;;;;;;;6.81;100.00;99318.00;5012531;28;20052;-74
2022/02/21 04:38:15;;;;;;;;;;;;;;;6.84;100.00;99352.13;5014066;28;20048;-74
2022/02/21 04:40:59;;;;;;;11.85;1.52;;;;;;;6.95;100.00;99362.56;5013366;28;20285;-74
2022/02/21 04:43:44;;;;;;;11.98;2.10;;;;;;;6.87;100.00;99385.44;5012661;28;20406;-74
2022/02/21 04:46:28;;;;;;;10.43;1.67;;;;;;;7.06;100.00;99394.19;5012328;28;20104;-74
2022/02/21 04:49:12;;;;;;;;;;;;;;;7.07;100.00;99392.38;4998594;28;20104;-74
2022/02/21 04:51:57;;;;;;;9.30;1.90;;;;;;;6.95;100.00;99399.66;5011959;28;19940;-74
2022/02/21 04:54:41;;;;;;;6.40;1.77;;;;;;;6.85;100.00;99398.81;4998780;28;20270;-74
2022/02/21 04:57:25;;;;;;;7.90;2.60;;;;;;;6.85;100.00;99408.56;5013067;28;20052;-74
2022/02/21 05:00:11;;;;;;;8.68;1.73;;;;;;;6.86;100.00;99419.03;5012149;28;20089;-74
2022/02/21 05:02:55;;;;;;;10.48;1.63;;;;;;;6.87;100.00;99418.06;4998150;28;20421;-74
2022/02/21 05:05:39;;;;;;;6.97;1.67;;;;;;;6.87;100.00;99423.34;5011982;28;20048;-74
2022/02/21 05:08:25;;;;;;;6.57;1.98;;;;;;;6.92;100.00;99436.19;5013139;28;20100;-74
2022/02/21 05:11:09;;;;;;;10.57;1.92;;;;;;;6.89;100.00;99447.88;5011743;28;20137;-74
2022/02/21 05:13:53;;;;;;;;;;;;;;;6.94;100.00;99456.25;5012459;28;20083;-74
2022/02/21 05:16:37;;;;;;;7.88;1.55;;;;;;;7.00;98.44;99449.56;5012857;28;19925;-74
2022/02/21 05:19:21;;;;;;;6.88;2.38;;;;;;;7.02;98.06;99445.81;5012017;28;20053;-74
2022/02/21 05:22:05;;;;;;;9.35;2.28;;;;;;;6.85;100.00;99451.81;5012749;28;20108;-74
2022/02/21 05:24:50;;;;;;;10.30;2.55;;;;;;;6.92;99.88;99476.78;5011798;28;20053;-74
2022/02/21 05:27:35;;;;;;;9.65;1.92;;;;;;;7.00;99.44;99498.13;5012162;28;20104;-74
2022/02/21 05:30:19;;;;;;;8.93;2.40;;;;;;;6.91;98.74;99493.66;5011906;28;20048;-74
2022/02/21 05:33:03;;;;;;;15.13;2.83;;;;;;;6.86;100.00;99468.56;5011610;28;20056;-74
2022/02/21 05:35:47;;;;;;;8.18;1.92;;;;;;;6.84;99.65;99463.38;5011826;28;20115;-74
2022/02/21 05:38:31;;;;;;;12.80;3.55;;;;;;;6.89;98.74;99437.28;5011571;28;20115;-73
2022/02/21 05:41:15;;;;;;;9.40;2.00;;;;;;;6.76;100.00;99436.75;5012688;28;20533;-73
2022/02/21 05:44:00;;;;;;;10.55;2.17;;;;;;;6.69;100.00;99435.63;5012634;28;20544;-73
2022/02/21 05:46:44;;;;;;;11.18;2.03;;;;;;;6.69;100.00;99443.56;4997971;28;20072;-73
2022/02/21 05:49:28;;;;;;;9.93;2.35;;;;;;;6.69;99.51;99434.81;5012970;28;20509;-73
2022/02/21 05:52:12;;;;;;;15.00;2.90;;;;;;;6.65;100.00;99457.25;5011391;28;20052;-73
2022/02/21 05:54:55;;;;;;;12.52;2.63;;;;;;;6.54;100.00;99458.22;5012505;28;20068;-73
2022/02/21 05:57:40;;;;;;;10.32;2.15;;;;;;;6.41;100.00;99462.94;5011705;28;20049;-73
2022/02/21 06:00:26;;;;;;;12.18;2.92;;;;;;;6.41;100.00;99465.59;4997793;28;20096;-73
2022/02/21 06:03:09;;;;;;;12.10;2.70;;;;;;;6.41;100.00;99462.94;5011629;28;20045;-73
2022/02/21 06:05:53;;;;;;;11.35;2.42;;;;;;;6.29;100.00;99466.69;5011552;28;20056;-73
2022/02/21 06:08:37;;;;;;;11.00;2.42;;;;;;;6.21;100.00;99481.56;5011335;28;20072;-73
2022/02/21 06:11:21;;;;;;;6.60;2.33;;;;;;;6.24;100.00;99491.91;5011033;28;20390;-73
2022/02/21 06:14:05;;;;;;;10.20;2.50;;;;;;;6.22;100.00;99502.63;5012518;28;20095;-73
2022/02/21 06:16:49;;;;;;;11.35;3.28;;;;;;;6.35;100.00;99500.53;5013539;28;20056;-73
2022/02/21 06:19:33;;;;;;;17.00;2.92;;;;;;;6.25;100.00;99496.22;5014934;28;20048;-73
2022/02/21 06:22:20;;;;;;;11.77;2.40;;;;;;;6.33;98.36;99507.78;5016002;28;20445;-73
2022/02/21 06:25:05;;;;;;;12.25;2.75;;;;;;;6.31;96.00;99516.84;5016505;28;20048;-74
2022/02/21 06:27:49;;;;;;;14.98;2.72;;;;;;;6.25;96.63;99518.22;5014660;28;20085;-73
2022/02/21 06:30:33;;;;;;;12.20;3.65;;;;;;;6.23;93.34;99528.09;5015549;28;20073;-73
2022/02/21 06:33:16;;;;;;;11.00;2.40;;;;;;;6.17;95.39;99533.94;5014536;28;20512;-73
2022/02/21 06:36:00;;;;;;;9.30;2.85;;;;;;;6.21;91.23;99556.53;5001154;28;20053;-73
2022/02/21 06:38:44;;;;;;;9.93;2.90;;;;;;;6.15;92.55;99562.34;5014365;28;20528;-73
2022/02/21 06:41:28;;;;;;;;;;;;;;;6.29;90.36;99538.16;5016041;28;20115;-73
2022/02/21 06:44:13;;;;;;;13.73;2.60;;;;;;;6.24;90.68;99544.84;5016069;28;20044;-73
2022/02/21 06:46:57;;;;;;;18.33;4.18;;;;;;;6.19;91.85;99532.00;5014337;28;20045;-74
2022/02/21 06:49:41;;;;;;;16.75;2.75;;;;;;;6.17;93.43;99554.28;5015586;28;20061;-74
2022/02/21 06:52:25;;;;;;;13.55;2.55;;;;;;;6.13;94.23;99543.13;5014361;28;20053;-74
2022/02/21 06:55:12;;;;;;;10.70;2.97;;;;;;;6.05;95.30;99548.22;5014507;28;20520;-73
2022/02/21 06:57:56;;;;;;;14.93;2.95;;;;;;;6.08;95.20;99542.69;5000632;28;20081;-73
2022/02/21 07:00:40;;;;;;;15.43;2.97;;;;;;;6.09;95.88;99533.78;5014969;28;20045;-73
2022/02/21 07:03:24;;;;;;;15.57;2.55;;;;;;;6.08;94.82;99532.09;5000341;28;20115;-73
2022/02/21 07:06:09;;;;;;;19.10;3.83;;;;;;;6.18;94.89;99540.88;5014378;28;20112;-73
2022/02/21 07:08:53;;;;;;;14.70;2.78;;;;;;;6.26;90.76;99527.81;5000202;28;20049;-72
2022/02/21 07:11:37;;;;;;;;;;;;;;;6.20;95.53;99546.06;5015116;28;20133;-73
2022/02/21 07:14:22;;;;;;;15.73;3.07;;;;;;;6.28;91.60;99541.75;5000239;28;20384;-73
2022/02/21 07:17:07;;;;;;;12.98;2.83;;;;;;;6.29;92.58;99569.94;5015029;28;20065;-73
2022/02/21 07:19:53;;;;;;;17.65;3.53;;;;;;;6.29;94.05;99554.06;5014113;28;20131;-73
2022/02/21 07:22:39;;;;;;;13.70;3.65;;;;;;;6.36;92.35;99570.22;5014848;28;20050;-73
2022/02/21 07:25:23;;;;;;;15.27;3.22;;;;;;;6.39;93.44;99564.66;5014675;28;20107;-73
2022/02/21 07:28:07;;;;;;;15.13;3.38;;;;;;;6.34;95.09;99562.41;5013448;28;20100;-73
2022/02/21 07:30:51;;;;;;;15.23;3.03;;;;;;;6.40;94.02;99572.47;5014481;28;20116;-73
2022/02/21 07:33:35;;;;;;;19.05;3.30;;;;;;;6.43;96.36;99580.13;5014476;28;20052;-73
2022/02/21 07:36:19;;;;;;;14.93;3.03;;;;;;;6.36;97.67;99581.63;5014454;28;20548;-73
2022/02/21 07:39:03;;;;;;;14.73;2.55;;;;;;;6.46;97.86;99592.28;5015022;28;20048;-73
2022/02/21 07:41:47;;;;;;;16.75;3.03;;;;;;;6.40;99.68;99598.09;5013237;28;20146;-73
2022/02/21 07:44:31;;;;;;;15.32;3.20;;;;;;;6.50;100.00;99604.25;4999251;28;20068;-73
2022/02/21 07:47:16;;;;;;;15.15;3.22;;;;;;;6.51;99.87;99619.16;5013313;28;20056;-73
2022/02/21 07:50:00;;;;;;;12.85;3.10;;;;;;;6.54;100.00;99603.84;5014283;28;20060;-73
2022/02/21 07:52:44;;;;;;;;;;;;;;;6.61;100.00;99612.94;5014665;28;20096;-73
2022/02/21 07:55:28;;;;;;;13.77;3.67;;;;;;;6.61;98.76;99610.28;4999403;28;20286;-73
2022/02/21 07:58:13;;;;;;;12.70;3.78;;;;;;;6.62;100.00;99635.81;5013085;28;20050;-73
2022/02/21 08:00:57;;;;;;;15.15;3.17;;;;;;;6.79;100.00;99636.97;5014163;28;20099;-73
2022/02/21 08:03:41;;;;;;;14.95;2.88;;;;;;;6.77;100.00;99629.13;5013873;28;20049;-73
2022/02/21 08:06:25;;;;;;;9.70;2.72;;;;;;;6.86;100.00;99638.94;5013167;28;20056;-73
2022/02/21 08:09:09;;;;;;;15.50;3.92;;;;;;;6.90;100.00;99658.91;4999115;28;20472;-73
2022/02/21 08:11:52;;;;;;;16.50;2.67;;;;;;;6.87;100.00;99640.59;5012577;28;20052;-73
2022/02/21 08:14:36;;;;;;;10.68;2.63;;;;;;;7.04;100.00;99647.91;5013873;28;20048;-73
2022/02/21 08:17:20;;;;;;;14.27;2.95;;;;;;;6.98;100.00;99642.31;5012462;28;20476;-73
2022/02/21 08:20:05;;;;;;;13.77;2.88;;;;;;;7.14;100.00;99638.16;5012815;28;20053;-73
2022/02/21 08:22:50;;;;;;;8.68;2.25;;;;;;;7.30;98.76;99649.03;5012903;28;20111;-73
2022/02/21 08:25:35;;;;;;;13.60;3.78;;;;;;;7.43;98.30;99652.25;5012484;28;20103;-73
2022/02/21 08:28:19;;;;;;;13.38;3.22;;;;;;;7.32;97.38;99649.75;5013626;28;20497;-73
2022/02/21 08:31:03;;;;;;;17.20;2.92;;;;;;;7.35;97.76;99638.84;4998672;28;20133;-74
2022/02/21 08:33:47;;;;;;;10.95;3.30;;;;;;;7.26;98.28;99652.94;5012543;28;20551;-73
2022/02/21 08:36:31;;;;;;;;;;;;;;;7.46;98.98;99638.72;5012614;28;20096;-73
2022/02/21 08:39:15;;;;;;;13.57;2.90;;;;;;;7.25;99.00;99640.66;5012640;28;19924;-73
2022/02/21 08:41:59;;;;;;;13.70;2.58;;;;;;;7.24;99.17;99632.84;5013169;28;20103;-73
2022/02/21 08:44:43;;;;;;;10.75;2.42;;;;;;;7.16;96.96;99624.75;4998691;28;20219;-73
2022/02/21 08:47:27;;;;;;;12.50;2.65;;;;;;;7.22;92.27;99622.41;5013395;28;20045;-73
2022/02/21 08:50:11;;;;;;;9.85;2.22;;;;;;;7.25;94.16;99635.38;5013300;28;20409;-73
2022/02/21 08:52:55;;;;;;;7.95;2.13;;;;;;;7.44;91.22;99683.09;5012149;28;20136;-73
2022/02/21 08:55:39;;;;;;;;;;;;;;;7.10;88.70;99673.84;5012886;28;20580;-73
2022/02/21 08:58:24;;;;;;;2.33;0.77;;;;;;;7.09;92.96;99703.13;5012146;28;19968;-73
2022/02/21 09:01:08;;;;;;;4.15;0.90;;;;;;;7.05;97.19;99702.56;5011803;28;20049;-73
2022/02/21 09:03:52;;;;;;;;;;;;;;;6.81;100.00;99736.53;5013770;28;20520;-73
2022/02/21 09:06:36;;;;;;;5.43;0.90;;;;;;;6.60;100.00;99690.72;5012436;28;19971;-73
2022/02/21 09:09:22;;;;;;;3.63;0.95;;;;;;;6.54;100.00;99738.91;5012058;28;20259;-73
2022/02/21 09:12:06;;;;;;;2.55;1.00;;;;;;;6.51;100.00;99691.50;5025089;23;20060;-72
2022/02/21 09:14:51;;;;;;;7.05;1.20;;;;;;;6.69;100.00;99689.88;5012739;28;20434;-72
2022/02/21 09:17:35;;;;;;;5.80;1.52;;;;;;;6.88;100.00;99708.50;5013110;28;20045;-72
2022/02/21 09:20:19;;;;;;;3.50;1.13;;;;;;;6.86;100.00;99696.38;5011834;28;20137;-70
2022/02/21 09:23:04;;;;;;;2.70;1.20;;;;;;;7.11;100.00;99702.03;5011792;28;20057;-72
2022/02/21 09:25:48;;;;;;;7.90;1.77;;;;;;;6.72;100.00;99742.63;5011939;28;20139;-70
2022/02/21 09:28:32;;;;;;;6.72;1.38;;;;;;;6.40;100.00;99728.66;5012856;28;20449;-72
2022/02/21 09:31:16;;;;;;;7.28;1.23;;;;;;;5.78;100.00;99727.78;5013179;28;20446;-71
2022/02/21 09:34:00;;;;;;;8.45;1.45;;;;;;;5.27;100.00;99769.06;5011572;28;20137;-72
2022/02/21 09:36:44;;;;;;;6.40;2.25;;;;;;;4.88;100.00;99770.53;5012538;28;20057;-72
2022/02/21 09:39:27;;;;;;;13.27;2.72;;;;;;;4.50;100.00;99759.47;4997712;28;20417;-74
2022/02/21 09:42:11;;;;;;;;;;;;;;;4.42;100.00;99777.69;5012154;28;20052;-72
2022/02/21 09:44:56;;;;;;;19.55;2.78;;;;;;;4.52;100.00;99768.09;5011798;28;19925;-73
2022/02/21 09:47:40;;;;;;;14.70;3.03;;;;;;;4.45;100.00;99772.19;5011682;28;20040;-74
2022/02/21 09:50:27;;;;;;;11.43;2.13;;;;;;;4.25;100.00;99757.06;5013808;28;20063;-73
2022/02/21 09:53:11;;;;;;;15.15;2.67;;;;;;;4.39;100.00;99756.81;5016519;28;20052;-72
2022/02/21 09:55:56;;;;;;;12.07;2.72;;;;;;;5.20;100.00;99744.06;5015477;28;20072;-73
2022/02/21 09:58:40;;;;;;;16.75;2.85;;;;;;;5.36;100.00;99749.78;5001464;28;20177;-74
2022/02/21 10:01:24;;;;;;;;;;;;;;;6.26;100.00;99758.09;5001896;28;20556;-74
2022/02/21 10:04:12;;;;;;;12.00;1.95;;;;;;;6.73;100.00;99738.13;5015276;28;19936;-74
2022/02/21 10:06:57;;;;;;;6.22;2.45;;;;;;;5.75;100.00;99737.78;5016186;28;20158;-75
2022/02/21 10:09:40;;;;;;;7.50;2.00;;;;;;;7.67;100.00;99737.56;5014943;28;20509;-75
2022/02/21 10:12:26;;;;;;;9.85;2.53;;;;;;;7.80;100.00;99732.81;5014940;28;20528;-75
2022/02/21 10:15:25;;;;;;;9.30;2.15;;;;;;;7.68;100.00;99729.47;5015078;28;20045;-74
2022/02/21 10:18:16;;;;;;;10.23;2.22;;;;;;;7.45;100.00;99736.97;5001075;28;20402;-71
2022/02/21 10:21:01;;;;;;;6.82;1.70;;;;;;;7.87;100.00;99739.25;5014816;28;20490;-73
2022/02/21 10:23:45;;;;;;;7.93;1.63;;;;;;;7.76;100.00;99721.63;5015092;28;20052;-72
2022/02/21 10:26:30;;;;;;;4.82;1.58;;;;;;;7.25;100.00;99729.94;5014513;28;20057;-75
2022/02/21 10:29:17;;;;;;;5.57;1.42;;;;;;;6.60;100.00;99735.75;5014865;28;20053;-74
2022/02/21 10:32:09;;;;;;;6.72;2.53;;;;;;;6.71;100.00;99727.69;5015699;28;20401;-73
2022/02/21 10:34:54;;;;;;;7.03;1.67;;;;;;;7.17;100.00;99712.06;5001300;28;20476;-74
2022/02/21 10:37:44;;;;;;;7.68;2.17;;;;;;;7.57;100.00;99711.03;5015420;28;20061;-75
2022/02/21 10:40:37;;;;;;;9.60;1.75;;;;;;;7.56;100.00;99713.81;5014352;28;20089;-72
2022/02/21 10:43:26;;;;;;;12.00;2.25;;;;;;;7.62;100.00;99714.09;5001105;28;20137;-73
2022/02/21 10:46:13;;;;;;;10.23;2.67;;;;;;;7.71;100.00;99721.22;5014474;28;20049;-74
2022/02/21 10:49:02;;;;;;;7.70;2.00;;;;;;;7.92;100.00;99726.38;5014378;28;20040;-74
2022/02/21 10:51:46;;;;;;;8.32;2.20;;;;;;;8.05;100.00;99721.63;5014330;28;20103;-73
2022/02/21 10:54:35;;;;;;;7.38;1.70;;;;;;;8.13;100.00;99729.75;5015387;28;20096;-74
2022/02/21 10:57:22;;;;;;;11.63;2.17;;;;;;;8.50;93.81;99720.03;5000529;28;20077;-73
2022/02/21 11:00:06;;;;;;;9.45;1.90;;;;;;;8.23;91.46;99717.31;5015054;28;20167;-74
2022/02/21 11:02:50;;;;;;;7.40;1.73;;;;;;;8.17;84.85;99700.06;5014516;28;20516;-74
2022/02/21 11:05:36;;;;;;;11.32;2.65;;;;;;;8.07;82.30;99706.41;5015020;28;20080;-73
2022/02/21 11:08:21;;;;;;;10.32;1.88;;;;;;;8.04;80.35;99725.28;5014177;28;20056;-73
2022/02/21 11:11:06;;;;;;;15.48;2.28;;;;;;;8.11;80.78;99713.09;5014271;28;20052;-73
2022/02/21 11:13:52;;;;;;;6.93;2.10;;;;;;;7.98;77.85;99723.16;5014642;28;20049;-73
2022/02/21 11:16:36;;;;;;;8.45;1.50;;;;;;;8.06;80.11;99718.00;5013877;28;20141;-74
2022/02/21 11:19:21;;;;;;;9.60;1.90;;;;;;;8.01;76.44;99710.47;5015260;28;20057;-73
2022/02/21 11:22:05;;;;;;;6.80;2.00;;;;;;;8.06;79.60;99702.06;5013726;28;20132;-73
2022/02/21 11:24:52;;;;;;;4.78;1.58;;;;;;;8.03;78.51;99697.88;5013658;28;20049;-73
2022/02/21 11:27:44;;;;;;;5.28;1.88;;;;;;;8.00;76.60;99687.56;4999614;28;20069;-73
2022/02/21 11:30:29;;;;;;;5.70;1.90;;;;;;;8.00;77.04;99692.84;4999898;28;20056;-71
2022/02/21 11:33:13;;;;;;;7.85;2.42;;;;;;;8.05;76.74;99689.78;5013385;28;20120;-73
2022/02/21 11:36:13;;;;;;;10.05;2.22;;;;;;;7.98;76.20;99684.22;4999761;28;20075;-73
2022/02/21 11:38:57;;;;;;;8.82;2.20;;;;;;;7.98;76.24;99675.41;4999683;28;20426;-73
2022/02/21 11:41:42;;;;;;;14.00;2.17;;;;;;;7.99;78.47;99658.47;5013263;28;20152;-73
2022/02/21 11:44:25;;;;;;;4.82;1.80;;;;;;;7.93;78.63;99659.06;5013374;28;20096;-73
2022/02/21 11:47:10;;;;;;;;;;;;;;;7.98;78.51;99659.47;5014826;28;20076;-74
2022/02/21 11:49:55;;;;;;;8.68;2.13;;;;;;;8.00;77.19;99668.13;5013140;28;19967;-73
2022/02/21 11:52:40;;;;;;;6.70;1.73;;;;;;;8.05;76.30;99649.97;5013313;28;20143;-73
2022/02/21 11:55:35;;;;;;;5.97;1.80;;;;;;;8.01;77.85;99651.22;5014736;28;20482;-73
2022/02/21 11:58:19;;;;;;;8.05;1.52;;;;;;;8.03;79.41;99651.94;5013869;28;20053;-73
2022/02/21 12:01:14;;;;;;;8.38;2.60;;;;;;;8.02;80.09;99631.66;5013173;28;20067;-71
2022/02/21 12:04:17;;;;;;;9.18;2.40;;;;;;;8.08;77.73;99620.47;5013025;28;20092;-73
2022/02/21 12:07:02;;;;;;;5.30;1.45;;;;;;;8.15;78.50;99632.19;5013049;28;20124;-73
2022/02/21 12:10:24;;;;;;;6.10;1.58;;;;;;;8.23;78.80;99650.94;5013782;28;20045;-73
2022/02/21 12:13:11;;;;;;;6.25;1.63;;;;;;;8.17;78.83;99644.31;5012781;28;20088;-73
2022/02/21 12:16:00;;;;;;;6.72;2.40;;;;;;;8.17;78.28;99636.34;5013150;28;20108;-73
2022/02/21 12:18:46;;;;;;;4.28;1.60;;;;;;;8.24;79.13;99647.28;5013568;28;20065;-72
2022/02/21 12:21:31;;;;;;;5.85;1.38;;;;;;;8.28;79.79;99635.38;5013610;28;20056;-73
2022/02/21 12:24:16;;;;;;;8.07;2.53;;;;;;;8.15;80.69;99643.63;5012500;28;20048;-73
2022/02/21 12:27:13;;;;;;;4.07;1.70;;;;;;;8.21;80.85;99636.94;5012492;28;20076;-72
2022/02/21 12:29:57;;;;;;;5.82;1.80;;;;;;;8.20;80.73;99614.88;5012646;28;20064;-73
2022/02/21 12:32:43;;;;;;;8.75;2.25;;;;;;;8.22;83.14;99630.66;5012505;28;20096;-72
2022/02/21 12:35:27;;;;;;;7.07;1.75;;;;;;;8.19;84.31;99617.66;5012569;28;20595;-73
2022/02/21 12:38:11;;;;;;;9.32;2.25;;;;;;;8.21;81.72;99628.97;5013259;28;20100;-72
2022/02/21 12:41:02;;;;;;;6.65;2.03;;;;;;;8.21;80.08;99611.25;5012448;28;20141;-73
2022/02/21 12:44:00;;;;;;;7.57;2.10;;;;;;;8.02;83.94;99647.56;5012126;28;20163;-73
2022/02/21 12:46:46;;;;;;;9.43;2.05;;;;;;;7.01;100.00;99624.34;5013494;28;20131;-73
2022/02/21 12:49:39;;;;;;;8.05;2.50;;;;;;;7.40;100.00;99617.22;5012517;28;20053;-73
2022/02/21 12:52:23;;;;;;;8.07;1.80;;;;;;;7.62;100.00;99604.53;5012711;28;20125;-73
2022/02/21 12:55:07;;;;;;;10.88;2.30;;;;;;;7.68;100.00;99633.13;5013269;28;20471;-73
2022/02/21 12:57:51;;;;;;;8.38;1.88;;;;;;;7.77;95.01;99626.97;4998269;28;20133;-73
2022/02/21 13:00:35;;;;;;;6.43;2.13;;;;;;;7.82;93.32;99635.34;5011892;28;20053;-73
2022/02/21 13:03:22;;;;;;;11.68;2.42;;;;;;;7.89;91.16;99586.88;5011902;28;20060;-73